sensor_id;sensor_type;location;lat;lon;timestamp;pressure;altitude;pressure_sealevel;temperature;humidity
44140;BME280;29803;51.048;4.686;2022-09-24T00:01:19;101326.25;;;12.99;100.00
44140;BME280;29803;51.048;4.686;2022-09-24T00:03:53;101315.66;;;12.98;100.00
44140;BME280;29803;51.048;4.686;2022-09-24T00:06:24;101317.69;;;12.95;100.00
44140;BME280;29803;51.048;4.686;2022-09-24T00:08:57;101313.13;;;12.96;100.00
44140;BME280;29803;51.048;4.686;2022-09-24T00:11:27;101316.66;;;12.96;100.00
44140;BME280;29803;51.048;4.686;2022-09-24T00:13:59;101310.25;;;12.98;100.00
44140;BME280;29803;51.048;4.686;2022-09-24T00:16:29;101306.72;;;12.97;100.00
44140;BME280;29803;51.048;4.686;2022-09-24T00:19:03;101309.44;;;12.97;100.00
44140;BME280;29803;51.048;4.686;2022-09-24T00:21:35;101309.06;;;13.00;100.00
44140;BME280;29803;51.048;4.686;2022-09-24T00:24:09;101302.19;;;12.98;100.00
44140;BME280;29803;51.048;4.686;2022-09-24T00:26:39;101299.66;;;12.96;100.00
44140;BME280;29803;51.048;4.686;2022-09-24T00:29:23;101300.50;;;12.96;100.00
44140;BME280;29803;51.048;4.686;2022-09-24T00:31:53;101297.63;;;12.98;100.00
44140;BME280;29803;51.048;4.686;2022-09-24T00:34:24;101289.75;;;12.96;100.00
44140;BME280;29803;51.048;4.686;2022-09-24T00:36:54;101292.44;;;12.96;100.00
44140;BME280;29803;51.048;4.686;2022-09-24T00:39:25;101291.22;;;12.99;100.00
44140;BME280;29803;51.048;4.686;2022-09-24T00:41:55;101287.69;;;12.99;100.00
44140;BME280;29803;51.048;4.686;2022-09-24T00:52:33;101278.97;;;12.96;100.00
44140;BME280;29803;51.048;4.686;2022-09-24T00:55:06;101281.47;;;12.98;100.00
44140;BME280;29803;51.048;4.686;2022-09-24T00:57:39;101274.06;;;13.00;100.00
44140;BME280;29803;51.048;4.686;2022-09-24T01:00:11;101273.22;;;13.00;100.00
44140;BME280;29803;51.048;4.686;2022-09-24T01:02:44;101265.13;;;13.00;100.00
44140;BME280;29803;51.048;4.686;2022-09-24T01:05:15;101269.69;;;12.99;100.00
44140;BME280;29803;51.048;4.686;2022-09-24T01:07:47;101262.44;;;13.00;100.00
44140;BME280;29803;51.048;4.686;2022-09-24T01:10:21;101269.88;;;12.98;100.00
44140;BME280;29803;51.048;4.686;2022-09-24T01:19:27;101261.66;;;12.91;100.00
44140;BME280;29803;51.048;4.686;2022-09-24T01:22:19;101265.88;;;12.85;100.00
44140;BME280;29803;51.048;4.686;2022-09-24T01:25:00;101271.41;;;12.84;100.00
44140;BME280;29803;51.048;4.686;2022-09-24T01:32:54;101255.09;;;12.77;100.00
44140;BME280;29803;51.048;4.686;2022-09-24T01:35:30;101258.63;;;12.78;100.00
44140;BME280;29803;51.048;4.686;2022-09-24T01:41:09;101252.91;;;12.81;100.00
44140;BME280;29803;51.048;4.686;2022-09-24T01:43:41;101249.53;;;12.79;100.00
44140;BME280;29803;51.048;4.686;2022-09-24T01:46:14;101239.78;;;12.78;100.00
44140;BME280;29803;51.048;4.686;2022-09-24T01:48:48;101243.66;;;12.75;100.00
44140;BME280;29803;51.048;4.686;2022-09-24T01:54:29;101238.94;;;12.69;100.00
44140;BME280;29803;51.048;4.686;2022-09-24T01:59:56;101234.41;;;12.69;100.00
44140;BME280;29803;51.048;4.686;2022-09-24T02:02:35;101230.88;;;12.69;100.00
44140;BME280;29803;51.048;4.686;2022-09-24T02:11:06;101226.31;;;12.69;100.00
44140;BME280;29803;51.048;4.686;2022-09-24T02:13:42;101220.94;;;12.69;100.00
44140;BME280;29803;51.048;4.686;2022-09-24T02:16:20;101223.63;;;12.69;100.00
44140;BME280;29803;51.048;4.686;2022-09-24T02:18:53;101215.91;;;12.66;100.00
44140;BME280;29803;51.048;4.686;2022-09-24T02:21:28;101217.91;;;12.64;100.00
44140;BME280;29803;51.048;4.686;2022-09-24T02:24:09;101216.06;;;12.65;100.00
44140;BME280;29803;51.048;4.686;2022-09-24T02:26:42;101220.78;;;12.63;100.00
44140;BME280;29803;51.048;4.686;2022-09-24T02:29:12;101214.56;;;12.62;100.00
44140;BME280;29803;51.048;4.686;2022-09-24T02:31:47;101216.25;;;12.63;100.00
44140;BME280;29803;51.048;4.686;2022-09-24T02:34:20;101218.59;;;12.66;100.00
44140;BME280;29803;51.048;4.686;2022-09-24T02:36:57;101221.13;;;12.68;100.00
44140;BME280;29803;51.048;4.686;2022-09-24T02:39:28;101217.59;;;12.67;100.00
44140;BME280;29803;51.048;4.686;2022-09-24T02:41:59;101221.31;;;12.66;100.00
44140;BME280;29803;51.048;4.686;2022-09-24T02:44:31;101206.00;;;12.67;100.00
44140;BME280;29803;51.048;4.686;2022-09-24T02:47:02;101220.28;;;12.67;100.00
44140;BME280;29803;51.048;4.686;2022-09-24T02:49:32;101214.56;;;12.70;100.00
44140;BME280;29803;51.048;4.686;2022-09-24T02:52:03;101216.56;;;12.68;100.00
44140;BME280;29803;51.048;4.686;2022-09-24T02:54:33;101209.34;;;12.69;100.00
44140;BME280;29803;51.048;4.686;2022-09-24T02:57:04;101209.69;;;12.66;100.00
44140;BME280;29803;51.048;4.686;2022-09-24T02:59:35;101199.06;;;12.64;100.00
44140;BME280;29803;51.048;4.686;2022-09-24T03:02:06;101201.28;;;12.61;100.00
44140;BME280;29803;51.048;4.686;2022-09-24T03:04:36;101203.81;;;12.62;100.00
44140;BME280;29803;51.048;4.686;2022-09-24T03:07:08;101203.97;;;12.61;100.00
44140;BME280;29803;51.048;4.686;2022-09-24T03:09:39;101196.75;;;12.61;100.00
44140;BME280;29803;51.048;4.686;2022-09-24T03:12:09;101195.91;;;12.61;100.00
44140;BME280;29803;51.048;4.686;2022-09-24T03:14:40;101196.25;;;12.58;100.00
44140;BME280;29803;51.048;4.686;2022-09-24T03:17:11;101199.94;;;12.57;100.00
44140;BME280;29803;51.048;4.686;2022-09-24T03:19:41;101199.09;;;12.56;100.00
44140;BME280;29803;51.048;4.686;2022-09-24T03:22:12;101190.34;;;12.54;100.00
44140;BME280;29803;51.048;4.686;2022-09-24T03:24:42;101186.81;;;12.54;100.00
44140;BME280;29803;51.048;4.686;2022-09-24T03:27:12;101183.66;;;12.50;100.00
44140;BME280;29803;51.048;4.686;2022-09-24T03:29:43;101178.28;;;12.50;100.00
44140;BME280;29803;51.048;4.686;2022-09-24T03:32:32;101188.03;;;12.51;100.00
44140;BME280;29803;51.048;4.686;2022-09-24T03:35:03;101177.41;;;12.50;100.00
44140;BME280;29803;51.048;4.686;2022-09-24T03:37:36;101173.03;;;12.49;100.00
44140;BME280;29803;51.048;4.686;2022-09-24T03:40:07;101175.72;;;12.49;100.00
44140;BME280;29803;51.048;4.686;2022-09-24T03:42:37;101177.75;;;12.47;100.00
44140;BME280;29803;51.048;4.686;2022-09-24T03:45:08;101180.28;;;12.48;100.00
44140;BME280;29803;51.048;4.686;2022-09-24T03:47:39;101181.28;;;12.47;100.00
44140;BME280;29803;51.048;4.686;2022-09-24T03:50:11;101169.88;;;12.45;100.00
44140;BME280;29803;51.048;4.686;2022-09-24T03:52:41;101170.72;;;12.46;100.00
44140;BME280;29803;51.048;4.686;2022-09-24T03:55:12;101169.00;;;12.44;100.00
44140;BME280;29803;51.048;4.686;2022-09-24T03:57:42;101169.00;;;12.44;100.00
44140;BME280;29803;51.048;4.686;2022-09-24T04:00:13;101168.16;;;12.44;100.00
44140;BME280;29803;51.048;4.686;2022-09-24T04:02:43;101158.41;;;12.43;100.00
44140;BME280;29803;51.048;4.686;2022-09-24T04:05:15;101156.41;;;12.45;100.00
44140;BME280;29803;51.048;4.686;2022-09-24T04:07:45;101158.94;;;12.47;100.00
44140;BME280;29803;51.048;4.686;2022-09-24T04:10:16;101156.22;;;12.47;100.00
44140;BME280;29803;51.048;4.686;2022-09-24T04:12:46;101159.75;;;12.47;100.00
44140;BME280;29803;51.048;4.686;2022-09-24T04:15:18;101153.38;;;12.48;100.00
44140;BME280;29803;51.048;4.686;2022-09-24T04:18:07;101151.69;;;12.47;100.00
44140;BME280;29803;51.048;4.686;2022-09-24T04:20:38;101143.63;;;12.47;100.00
44140;BME280;29803;51.048;4.686;2022-09-24T04:23:09;101151.38;;;12.50;100.00
44140;BME280;29803;51.048;4.686;2022-09-24T04:25:40;101141.25;;;12.52;100.00
44140;BME280;29803;51.048;4.686;2022-09-24T04:28:10;101142.94;;;12.53;100.00
44140;BME280;29803;51.048;4.686;2022-09-24T04:30:41;101141.25;;;12.52;100.00
44140;BME280;29803;51.048;4.686;2022-09-24T04:33:13;101140.59;;;12.50;100.00
44140;BME280;29803;51.048;4.686;2022-09-24T04:35:44;101143.28;;;12.50;100.00
44140;BME280;29803;51.048;4.686;2022-09-24T04:38:14;101148.81;;;12.49;100.00
44140;BME280;29803;51.048;4.686;2022-09-24T04:40:46;101147.16;;;12.48;100.00
44140;BME280;29803;51.048;4.686;2022-09-24T04:43:16;101146.31;;;12.47;100.00
44140;BME280;29803;51.048;4.686;2022-09-24T04:45:48;101138.56;;;12.44;100.00
44140;BME280;29803;51.048;4.686;2022-09-24T04:48:18;101140.41;;;12.43;100.00
44140;BME280;29803;51.048;4.686;2022-09-24T04:50:49;101135.88;;;12.44;100.00
44140;BME280;29803;51.048;4.686;2022-09-24T04:53:20;101139.59;;;12.43;100.00
44140;BME280;29803;51.048;4.686;2022-09-24T04:55:51;101133.38;;;12.42;100.00
44140;BME280;29803;51.048;4.686;2022-09-24T04:58:21;101144.13;;;12.42;100.00
44140;BME280;29803;51.048;4.686;2022-09-24T05:00:52;101141.44;;;12.42;100.00
44140;BME280;29803;51.048;4.686;2022-09-24T05:03:22;101137.91;;;12.42;100.00
44140;BME280;29803;51.048;4.686;2022-09-24T05:05:53;101136.06;;;12.42;100.00
44140;BME280;29803;51.048;4.686;2022-09-24T05:08:23;101130.50;;;12.44;100.00
44140;BME280;29803;51.048;4.686;2022-09-24T05:10:53;101128.63;;;12.44;100.00
44140;BME280;29803;51.048;4.686;2022-09-24T05:13:24;101134.19;;;12.43;100.00
44140;BME280;29803;51.048;4.686;2022-09-24T05:15:54;101124.78;;;12.39;100.00
44140;BME280;29803;51.048;4.686;2022-09-24T05:18:25;101137.91;;;12.42;100.00
44140;BME280;29803;51.048;4.686;2022-09-24T05:20:56;101140.59;;;12.42;100.00
44140;BME280;29803;51.048;4.686;2022-09-24T05:23:27;101137.06;;;12.41;100.00
44140;BME280;29803;51.048;4.686;2022-09-24T05:25:57;101144.97;;;12.43;100.00
44140;BME280;29803;51.048;4.686;2022-09-24T05:28:46;101156.41;;;12.45;100.00
44140;BME280;29803;51.048;4.686;2022-09-24T05:31:17;101153.53;;;12.47;100.00
44140;BME280;29803;51.048;4.686;2022-09-24T05:33:47;101148.34;;;12.45;100.00
44140;BME280;29803;51.048;4.686;2022-09-24T05:36:18;101147.47;;;12.44;100.00
44140;BME280;29803;51.048;4.686;2022-09-24T05:38:49;101150.03;;;12.46;100.00
44140;BME280;29803;51.048;4.686;2022-09-24T05:41:19;101149.31;;;12.44;100.00
44140;BME280;29803;51.048;4.686;2022-09-24T05:43:50;101144.78;;;12.44;100.00
44140;BME280;29803;51.048;4.686;2022-09-24T05:46:20;101149.50;;;12.42;100.00
44140;BME280;29803;51.048;4.686;2022-09-24T05:48:50;101151.38;;;12.42;100.00
44140;BME280;29803;51.048;4.686;2022-09-24T05:51:21;101153.22;;;12.41;100.00
44140;BME280;29803;51.048;4.686;2022-09-24T05:53:52;101159.25;;;12.43;100.00
44140;BME280;29803;51.048;4.686;2022-09-24T05:56:22;101157.41;;;12.44;100.00
44140;BME280;29803;51.048;4.686;2022-09-24T05:58:53;101154.06;;;12.42;100.00
44140;BME280;29803;51.048;4.686;2022-09-24T06:01:24;101156.22;;;12.47;100.00
44140;BME280;29803;51.048;4.686;2022-09-24T06:03:55;101154.72;;;12.44;100.00
44140;BME280;29803;51.048;4.686;2022-09-24T06:06:26;101159.44;;;12.42;100.00
44140;BME280;29803;51.048;4.686;2022-09-24T06:08:57;101149.19;;;12.46;100.00
44140;BME280;29803;51.048;4.686;2022-09-24T06:11:27;101160.41;;;12.49;100.00
44140;BME280;29803;51.048;4.686;2022-09-24T06:14:03;101159.44;;;12.50;100.00
44140;BME280;29803;51.048;4.686;2022-09-24T06:16:34;101158.75;;;12.48;100.00
44140;BME280;29803;51.048;4.686;2022-09-24T06:19:05;101158.75;;;12.48;100.00
44140;BME280;29803;51.048;4.686;2022-09-24T06:21:35;101153.19;;;12.50;100.00
44140;BME280;29803;51.048;4.686;2022-09-24T06:24:06;101167.50;;;12.50;100.00
44140;BME280;29803;51.048;4.686;2022-09-24T06:26:36;101168.50;;;12.49;100.00
44140;BME280;29803;51.048;4.686;2022-09-24T06:29:07;101162.47;;;12.47;100.00
44140;BME280;29803;51.048;4.686;2022-09-24T06:31:37;101164.13;;;12.48;100.00
44140;BME280;29803;51.048;4.686;2022-09-24T06:34:08;101153.19;;;12.50;100.00
44140;BME280;29803;51.048;4.686;2022-09-24T06:36:38;101160.09;;;12.52;100.00
44140;BME280;29803;51.048;4.686;2022-09-24T06:39:09;101159.06;;;12.53;100.00
44140;BME280;29803;51.048;4.686;2022-09-24T06:41:40;101165.16;;;12.55;100.00
44140;BME280;29803;51.048;4.686;2022-09-24T06:44:10;101165.16;;;12.55;100.00
44140;BME280;29803;51.048;4.686;2022-09-24T06:46:40;101166.63;;;12.58;100.00
44140;BME280;29803;51.048;4.686;2022-09-24T06:49:11;101157.53;;;12.59;100.00
44140;BME280;29803;51.048;4.686;2022-09-24T06:51:41;101161.56;;;12.63;100.00
44140;BME280;29803;51.048;4.686;2022-09-24T06:54:12;101160.75;;;12.62;100.00
44140;BME280;29803;51.048;4.686;2022-09-24T06:56:42;101165.44;;;12.68;100.00
44140;BME280;29803;51.048;4.686;2022-09-24T06:59:13;101163.75;;;12.67;100.00
44140;BME280;29803;51.048;4.686;2022-09-24T07:01:43;101168.47;;;12.65;100.00
44140;BME280;29803;51.048;4.686;2022-09-24T07:04:14;101165.44;;;12.68;100.00
44140;BME280;29803;51.048;4.686;2022-09-24T07:06:44;101173.81;;;12.74;100.00
44140;BME280;29803;51.048;4.686;2022-09-24T07:09:33;101170.13;;;12.75;100.00
44140;BME280;29803;51.048;4.686;2022-09-24T07:12:05;101172.47;;;12.78;100.00
44140;BME280;29803;51.048;4.686;2022-09-24T07:14:38;101171.13;;;12.82;100.00
44140;BME280;29803;51.048;4.686;2022-09-24T07:17:08;101169.09;;;12.84;100.00
44140;BME280;29803;51.048;4.686;2022-09-24T07:19:39;101176.66;;;12.88;100.00
44140;BME280;29803;51.048;4.686;2022-09-24T07:22:09;101180.19;;;12.89;100.00
44140;BME280;29803;51.048;4.686;2022-09-24T07:24:40;101178.16;;;12.91;100.00
44140;BME280;29803;51.048;4.686;2022-09-24T07:27:11;101173.44;;;12.93;100.00
44140;BME280;29803;51.048;4.686;2022-09-24T07:29:41;101180.50;;;12.94;100.00
44140;BME280;29803;51.048;4.686;2022-09-24T07:32:14;101181.19;;;12.96;100.00
44140;BME280;29803;51.048;4.686;2022-09-24T07:34:45;101183.50;;;12.99;100.00
44140;BME280;29803;51.048;4.686;2022-09-24T07:37:16;101185.19;;;13.00;100.00
44140;BME280;29803;51.048;4.686;2022-09-24T07:39:46;101189.06;;;12.98;100.00
44140;BME280;29803;51.048;4.686;2022-09-24T07:42:16;101189.91;;;12.98;100.00
44140;BME280;29803;51.048;4.686;2022-09-24T07:44:47;101190.94;;;12.97;100.00
44140;BME280;29803;51.048;4.686;2022-09-24T07:47:18;101188.56;;;13.02;100.00
44140;BME280;29803;51.048;4.686;2022-09-24T07:49:48;101199.97;;;13.04;100.00
44140;BME280;29803;51.048;4.686;2022-09-24T07:52:19;101195.94;;;13.00;100.00
44140;BME280;29803;51.048;4.686;2022-09-24T07:54:49;101199.66;;;12.99;100.00
44140;BME280;29803;51.048;4.686;2022-09-24T07:57:21;101198.00;;;12.98;100.00
44140;BME280;29803;51.048;4.686;2022-09-24T07:59:52;101200.34;;;13.01;100.00
44140;BME280;29803;51.048;4.686;2022-09-24T08:02:24;101204.38;;;13.05;100.00
44140;BME280;29803;51.048;4.686;2022-09-24T08:04:55;101200.47;;;13.08;100.00
44140;BME280;29803;51.048;4.686;2022-09-24T08:07:25;101210.91;;;13.11;100.00
44140;BME280;29803;51.048;4.686;2022-09-24T08:09:56;101209.06;;;13.11;100.00
44140;BME280;29803;51.048;4.686;2022-09-24T08:12:27;101208.53;;;13.16;100.00
44140;BME280;29803;51.048;4.686;2022-09-24T08:14:58;101209.00;;;13.19;100.00
44140;BME280;29803;51.048;4.686;2022-09-24T08:17:30;101216.94;;;13.21;100.00
44140;BME280;29803;51.048;4.686;2022-09-24T08:20:01;101212.44;;;13.21;100.00
44140;BME280;29803;51.048;4.686;2022-09-24T08:22:32;101214.09;;;13.14;100.00
44140;BME280;29803;51.048;4.686;2022-09-24T08:25:03;101214.59;;;13.18;100.00
44140;BME280;29803;51.048;4.686;2022-09-24T08:27:35;101214.09;;;13.14;100.00
44140;BME280;29803;51.048;4.686;2022-09-24T08:30:07;101217.94;;;13.20;100.00
44140;BME280;29803;51.048;4.686;2022-09-24T08:32:37;101222.47;;;13.19;100.00
44140;BME280;29803;51.048;4.686;2022-09-24T08:35:08;101221.66;;;13.19;100.00
44140;BME280;29803;51.048;4.686;2022-09-24T08:37:40;101226.56;;;13.24;100.00
44140;BME280;29803;51.048;4.686;2022-09-24T08:40:35;101226.03;;;13.28;100.00
44140;BME280;29803;51.048;4.686;2022-09-24T08:43:31;101218.25;;;13.33;100.00
44140;BME280;29803;51.048;4.686;2022-09-24T08:46:20;101214.91;;;13.31;100.00
44140;BME280;29803;51.048;4.686;2022-09-24T08:49:16;101219.81;;;13.28;100.00
44140;BME280;29803;51.048;4.686;2022-09-24T08:54:43;101213.72;;;13.34;100.00
44140;BME280;29803;51.048;4.686;2022-09-24T08:57:15;101218.75;;;13.37;100.00
44140;BME280;29803;51.048;4.686;2022-09-24T08:59:50;101223.78;;;13.40;100.00
44140;BME280;29803;51.048;4.686;2022-09-24T09:05:43;101217.56;;;13.39;100.00
44140;BME280;29803;51.048;4.686;2022-09-24T09:08:26;101215.16;;;13.44;100.00
44140;BME280;29803;51.048;4.686;2022-09-24T09:11:02;101220.22;;;13.47;100.00
44140;BME280;29803;51.048;4.686;2022-09-24T09:13:38;101218.19;;;13.50;100.00
44140;BME280;29803;51.048;4.686;2022-09-24T09:16:15;101221.69;;;13.58;100.00
44140;BME280;29803;51.048;4.686;2022-09-24T09:18:50;101222.81;;;13.64;100.00
44140;BME280;29803;51.048;4.686;2022-09-24T09:21:28;101221.88;;;13.57;100.00
44140;BME280;29803;51.048;4.686;2022-09-24T09:24:00;101228.81;;;13.51;100.00
44140;BME280;29803;51.048;4.686;2022-09-24T09:26:32;101226.31;;;13.41;100.00
44140;BME280;29803;51.048;4.686;2022-09-24T09:29:04;101229.16;;;13.40;100.00
44140;BME280;29803;51.048;4.686;2022-09-24T09:40:41;101233.03;;;13.45;100.00
44140;BME280;29803;51.048;4.686;2022-09-24T09:43:14;101237.75;;;13.43;100.00
44140;BME280;29803;51.048;4.686;2022-09-24T09:48:57;101235.75;;;13.37;100.00
44140;BME280;29803;51.048;4.686;2022-09-24T09:51:31;101234.09;;;13.36;100.00
44140;BME280;29803;51.048;4.686;2022-09-24T09:54:04;101232.88;;;13.39;100.00
44140;BME280;29803;51.048;4.686;2022-09-24T09:56:36;101240.13;;;13.38;100.00
44140;BME280;29803;51.048;4.686;2022-09-24T10:01:43;101238.78;;;13.42;100.00
44140;BME280;29803;51.048;4.686;2022-09-24T10:04:34;101247.50;;;13.44;100.00
44140;BME280;29803;51.048;4.686;2022-09-24T10:07:07;101245.97;;;13.50;100.00
44140;BME280;29803;51.048;4.686;2022-09-24T10:09:40;101238.56;;;13.52;100.00
44140;BME280;29803;51.048;4.686;2022-09-24T10:12:15;101246.47;;;13.54;100.00
44140;BME280;29803;51.048;4.686;2022-09-24T10:17:33;101250.69;;;13.56;100.00
44140;BME280;29803;51.048;4.686;2022-09-24T10:20:08;101255.22;;;13.56;100.00
44140;BME280;29803;51.048;4.686;2022-09-24T10:22:48;101243.25;;;13.58;100.00
44140;BME280;29803;51.048;4.686;2022-09-24T10:25:23;101245.28;;;13.56;100.00
44140;BME280;29803;51.048;4.686;2022-09-24T10:28:00;101253.72;;;13.53;100.00
44140;BME280;29803;51.048;4.686;2022-09-24T10:31:06;101250.00;;;13.54;100.00
44140;BME280;29803;51.048;4.686;2022-09-24T10:33:43;101246.47;;;13.54;100.00
44140;BME280;29803;51.048;4.686;2022-09-24T10:36:33;101245.28;;;13.56;100.00
44140;BME280;29803;51.048;4.686;2022-09-24T10:39:12;101238.88;;;13.57;100.00
44140;BME280;29803;51.048;4.686;2022-09-24T10:41:46;101240.94;;;13.47;100.00
44140;BME280;29803;51.048;4.686;2022-09-24T10:44:19;101246.34;;;13.47;100.00
44140;BME280;29803;51.048;4.686;2022-09-24T10:47:02;101245.13;;;13.50;100.00
44140;BME280;29803;51.048;4.686;2022-09-24T10:55:15;101239.72;;;13.50;100.00
44140;BME280;29803;51.048;4.686;2022-09-24T10:57:53;101234.88;;;13.45;100.00
44140;BME280;29803;51.048;4.686;2022-09-24T11:00:36;101240.84;;;13.32;100.00
44140;BME280;29803;51.048;4.686;2022-09-24T11:21:41;101252.84;;;13.21;100.00
44140;BME280;29803;51.048;4.686;2022-09-24T11:30:15;101248.13;;;12.99;100.00
44140;BME280;29803;51.048;4.686;2022-09-24T11:33:12;101251.53;;;13.01;100.00
44140;BME280;29803;51.048;4.686;2022-09-24T11:38:50;101239.59;;;12.87;100.00
44140;BME280;29803;51.048;4.686;2022-09-24T11:41:43;101233.88;;;12.82;100.00
44140;BME280;29803;51.048;4.686;2022-09-24T11:50:27;101237.72;;;12.96;100.00
44140;BME280;29803;51.048;4.686;2022-09-24T11:53:08;101237.22;;;13.01;100.00
44140;BME280;29803;51.048;4.686;2022-09-24T11:55:47;101237.38;;;12.99;100.00
44140;BME280;29803;51.048;4.686;2022-09-24T11:58:24;101234.53;;;12.92;100.00
44140;BME280;29803;51.048;4.686;2022-09-24T12:01:03;101233.66;;;13.00;100.00
44140;BME280;29803;51.048;4.686;2022-09-24T12:04:09;101228.44;;;12.99;100.00
44140;BME280;29803;51.048;4.686;2022-09-24T12:09:46;101229.66;;;12.88;100.00
44140;BME280;29803;51.048;4.686;2022-09-24T12:12:26;101224.41;;;12.94;100.00
44140;BME280;29803;51.048;4.686;2022-09-24T12:17:57;101221.25;;;12.91;100.00
44140;BME280;29803;51.048;4.686;2022-09-24T12:20:43;101221.06;;;12.84;100.00
44140;BME280;29803;51.048;4.686;2022-09-24T12:23:17;101216.72;;;12.83;100.00
44140;BME280;29803;51.048;4.686;2022-09-24T12:25:49;101224.97;;;12.82;100.00
44140;BME280;29803;51.048;4.686;2022-09-24T12:28:21;101218.75;;;12.81;100.00
44140;BME280;29803;51.048;4.686;2022-09-24T12:31:16;101214.84;;;12.84;100.00
44140;BME280;29803;51.048;4.686;2022-09-24T12:34:18;101224.91;;;12.98;100.00
44140;BME280;29803;51.048;4.686;2022-09-24T12:37:10;101217.34;;;13.02;100.00
44140;BME280;29803;51.048;4.686;2022-09-24T12:42:46;101216.00;;;13.06;100.00
44140;BME280;29803;51.048;4.686;2022-09-24T12:45:20;101212.94;;;13.09;100.00
44140;BME280;29803;51.048;4.686;2022-09-24T12:47:56;101215.16;;;13.05;100.00
44140;BME280;29803;51.048;4.686;2022-09-24T12:50:30;101216.66;;;13.08;100.00
44140;BME280;29803;51.048;4.686;2022-09-24T12:53:02;101208.69;;;13.14;100.00
44140;BME280;29803;51.048;4.686;2022-09-24T12:55:33;101214.25;;;13.21;100.00
44140;BME280;29803;51.048;4.686;2022-09-24T12:58:06;101218.47;;;13.24;100.00
44140;BME280;29803;51.048;4.686;2022-09-24T13:01:24;101220.13;;;13.33;100.00
44140;BME280;29803;51.048;4.686;2022-09-24T13:06:47;101221.13;;;13.32;100.00
44140;BME280;29803;51.048;4.686;2022-09-24T13:09:25;101217.44;;;13.25;100.00
44140;BME280;29803;51.048;4.686;2022-09-24T13:17:40;101217.09;;;13.28;100.00
44140;BME280;29803;51.048;4.686;2022-09-24T13:20:23;101225.19;;;13.28;100.00
44140;BME280;29803;51.048;4.686;2022-09-24T13:23:09;101224.84;;;13.31;100.00
44140;BME280;29803;51.048;4.686;2022-09-24T13:25:54;101224.66;;;13.32;100.00
44140;BME280;29803;51.048;4.686;2022-09-24T13:28:28;101216.78;;;13.31;100.00
44140;BME280;29803;51.048;4.686;2022-09-24T13:31:07;101228.00;;;13.34;100.00
44140;BME280;29803;51.048;4.686;2022-09-24T13:33:43;101218.44;;;13.32;100.00
44140;BME280;29803;51.048;4.686;2022-09-24T13:36:18;101223.84;;;13.24;100.00
44140;BME280;29803;51.048;4.686;2022-09-24T13:44:53;101230.59;;;13.28;100.00
44140;BME280;29803;51.048;4.686;2022-09-24T13:47:47;101221.84;;;13.26;100.00
44140;BME280;29803;51.048;4.686;2022-09-24T13:55:46;101234.41;;;13.41;100.00
44140;BME280;29803;51.048;4.686;2022-09-24T14:01:01;101232.16;;;13.53;100.00
44140;BME280;29803;51.048;4.686;2022-09-24T14:03:33;101231.13;;;13.54;100.00
44140;BME280;29803;51.048;4.686;2022-09-24T14:11:55;101236.53;;;13.54;100.00
44140;BME280;29803;51.048;4.686;2022-09-24T14:14:28;101228.63;;;13.53;100.00
44140;BME280;29803;51.048;4.686;2022-09-24T14:17:17;101227.78;;;13.52;100.00
44140;BME280;29803;51.048;4.686;2022-09-24T14:19:53;101226.56;;;13.55;100.00
44140;BME280;29803;51.048;4.686;2022-09-24T14:22:30;101236.19;;;13.57;100.00
44140;BME280;29803;51.048;4.686;2022-09-24T14:25:25;101230.91;;;13.64;100.00
44140;BME280;29803;51.048;4.686;2022-09-24T14:27:58;101234.75;;;13.69;100.00
44140;BME280;29803;51.048;4.686;2022-09-24T14:30:31;101232.38;;;13.74;100.00
44140;BME280;29803;51.048;4.686;2022-09-24T14:33:06;101228.31;;;13.79;100.00
44140;BME280;29803;51.048;4.686;2022-09-24T14:35:46;101234.50;;;13.87;100.00
44140;BME280;29803;51.048;4.686;2022-09-24T14:38:22;101229.88;;;13.96;100.00
44140;BME280;29803;51.048;4.686;2022-09-24T14:40:59;101235.59;;;14.01;100.00
44140;BME280;29803;51.048;4.686;2022-09-24T14:43:52;101232.50;;;14.04;100.00
44140;BME280;29803;51.048;4.686;2022-09-24T14:46:45;101237.41;;;14.00;100.00
44140;BME280;29803;51.048;4.686;2022-09-24T14:49:21;101236.94;;;13.97;100.00
44140;BME280;29803;51.048;4.686;2022-09-24T14:51:56;101241.03;;;13.93;100.00
44140;BME280;29803;51.048;4.686;2022-09-24T14:54:39;101246.63;;;13.83;100.00
44140;BME280;29803;51.048;4.686;2022-09-24T14:57:23;101247.84;;;13.81;100.00
44140;BME280;29803;51.048;4.686;2022-09-24T14:59:54;101255.63;;;13.76;100.00
44140;BME280;29803;51.048;4.686;2022-09-24T15:02:45;101258.88;;;13.71;100.00
44140;BME280;29803;51.048;4.686;2022-09-24T15:05:22;101257.34;;;13.68;100.00
44140;BME280;29803;51.048;4.686;2022-09-24T15:10:56;101257.88;;;13.64;100.00
44140;BME280;29803;51.048;4.686;2022-09-24T15:13:32;101250.47;;;13.66;100.00
44140;BME280;29803;51.048;4.686;2022-09-24T15:18:57;101255.34;;;13.62;100.00
44140;BME280;29803;51.048;4.686;2022-09-24T15:21:28;101267.81;;;13.63;100.00
44140;BME280;29803;51.048;4.686;2022-09-24T15:23:59;101268.66;;;13.64;100.00
44140;BME280;29803;51.048;4.686;2022-09-24T15:26:32;101265.78;;;13.65;100.00
44140;BME280;29803;51.048;4.686;2022-09-24T15:29:03;101267.47;;;13.66;100.00
44140;BME280;29803;51.048;4.686;2022-09-24T15:31:36;101260.88;;;13.69;100.00
44140;BME280;29803;51.048;4.686;2022-09-24T15:34:07;101266.13;;;13.70;100.00
44140;BME280;29803;51.048;4.686;2022-09-24T15:36:37;101269.47;;;13.72;100.00
44140;BME280;29803;51.048;4.686;2022-09-24T15:39:09;101275.50;;;13.74;100.00